Portland International Airport
KPDX : now visible

Airfield :











YOU CAN JOIN US ON...

 
LOGIN :

Register | Disclaimer

   EN    FR    IT 

 









Legend :    VFR   Marginal VFR   IFR   Intensive IFR   Very Intensive IFR
Visi :
Ceiling :
>= 8 km
>= 3000ft
5 to 8 km
1000 to 3000 ft
1500m to 5 km
500 to 1000 ft
800 to 1500m
200 to 500 ft
< 800m
< 200 ft
Symbols :   Thunderstorms  Fog  Heavy snow  Heavy precipitations  Wind > 20 kt






- Airport Elevation : 31 ft
- IATA code : PDX


KPDX - Portland International

CURRENT METAR :
  • 031653Z 29004KT 10SM BKN029 OVC048 16/09 A3010 RMK AO2 SLP192 T01610094

EXPIRED METARs :
  • 031553Z 00000KT 10SM SCT027 OVC049 16/11 A3009 RMK AO2 SLP189 T01610111
  • 031453Z 00000KT 10SM SCT030 OVC048 14/11 A3008 RMK AO2 SLP186 T01440111 53015

TAF KPDX
Valid from the 03 at 18:00 until the 04 at 18:00 UTC


031733Z 0318/0418 32004KT P6SM SCT028 OVC045
FM032200 32005KT P6SM BKN045
FM040000 32006KT P6SM SCT050
FM041200 31003KT P6SM SCT025 OVC040
KZSE FIR / North America



MET'MAP, your aeronautical weather chart ! - Copyright ORBIFLY December 2007 - Disclaimer

ORBIFLY MET'MAP TEAM :

Programming & Development : Alexandra Zaïnal
Concept & original design : Baudouin d'Aumeries
Assistance for programming : Marc-Olivier Méhu
Technical & hardware support : Manuel Goepfert

Contact : metmap@orbifly.com




SOURCES & CREDITS :

   NOAA       Earth
Advisory